Latest Weather Observations for Redcliffe

IDQ60901

Issued at 9:01 pm EST Monday 2 March 2015 (issued every 10 minutes, with the page automatically refreshed every 10 minutes)

About weather observations | Map of Brisbane area stations | Latest observations for Brisbane area | Other Formats
Station Details ID: 040958 Name: REDCLIFFE Lat: -27.22 Lon: 153.09 Height: 12.6 m
Data from the previous 72 hours. | See also: Recent months at Redcliffe
Date/Time
EST
Tmp

°C
App
Tmp
°C
Dew
Point
°C
Rel
Hum
%
Delta-T

°C
Wind Press
QNH
hPa
Press
MSL
hPa
Rain
since
9 am
mm
Dir
 
Spd
km/h
Gust
km/h
Spd
kts
Gust
kts
02/08:30pm 25.4 22.5 20.0 72 3.5 SSE 35 43 19 23 1014.9 1014.8 0.0
02/08:00pm 25.6 21.9 19.9 70 3.7 SSE 39 46 21 25 1014.3 1014.2 0.0
02/07:30pm 25.8 22.7 19.7 69 3.9 SSE 35 41 19 22 1014.1 1014.0 0.0
02/07:00pm 25.8 21.7 19.2 67 4.2 SE 39 46 21 25 1013.5 1013.4 0.0
02/06:30pm 25.9 21.7 19.8 69 4.0 SE 41 48 22 26 1013.1 1013.0 0.0
02/06:00pm 26.0 23.7 20.6 72 3.5 SE 33 43 18 23 1012.8 1012.7 0.0
02/05:30pm 26.2 21.9 19.6 67 4.3 SE 41 50 22 27 1012.5 1012.4 0.0
02/05:00pm 27.0 22.6 19.4 63 4.9 SE 41 50 22 27 1012.0 1011.9 0.0
02/04:30pm 27.0 22.3 19.4 63 4.9 SE 43 52 23 28 1011.4 1011.3 0.0
02/04:00pm 28.0 23.0 20.0 61 5.2 SE 46 52 25 28 1011.3 1011.2 0.0
02/03:30pm 28.0 23.3 19.5 60 5.5 SE 43 52 23 28 1011.2 1011.1 0.0
02/03:00pm 28.1 23.3 19.6 60 5.5 SE 44 52 24 28 1011.0 1010.9 0.0
02/02:30pm 28.6 24.1 19.0 56 6.2 SE 41 50 22 27 1011.2 1011.1 0.0
02/02:00pm 28.8 25.3 19.7 58 5.9 SE 37 43 20 23 1011.3 1011.2 0.0
02/01:30pm 28.7 25.7 19.9 59 5.8 SE 35 41 19 22 1011.7 1011.6 0.0
02/01:00pm 28.6 25.3 20.1 60 5.6 SE 37 41 20 22 1011.9 1011.8 0.0
02/12:30pm 28.6 25.3 20.1 60 5.6 SE 37 44 20 24 1012.1 1012.0 0.0
02/12:00pm 28.4 24.9 20.4 62 5.3 SE 39 44 21 24 1012.6 1012.5 0.0
02/11:30am 28.0 24.7 20.0 61 5.2 SE 37 43 20 23 1012.7 1012.6 0.0
02/11:00am 28.3 25.8 20.1 61 5.4 SE 33 37 18 20 1013.0 1012.9 0.0
02/10:30am 27.9 26.0 21.0 66 4.6 SE 32 35 17 19 1013.0 1012.9 0.0
02/10:00am 28.2 27.8 21.0 65 4.8 SSE 24 28 13 15 1013.0 1012.9 0.0
02/09:30am 28.3 29.2 20.8 63 5.0 SSE 17 26 9 14 1013.0 1012.9 0.0
02/09:00am 27.6 28.8 19.9 63 5.0 S 13 17 7 9 1012.8 1012.7 0.0
02/08:00am 26.9 27.6 20.5 68 4.2 S 17 20 9 11 1012.2 1012.1 0.0
02/07:30am 26.0 27.3 20.8 73 3.4 SSW 15 19 8 10 1012.2 1012.1 0.0
02/07:00am 24.9 25.9 21.0 79 2.6 S 17 22 9 12 1012.0 1011.9 0.0
02/06:30am 24.4 24.9 20.9 81 2.3 S 19 26 10 14 1011.9 1011.8 0.0
02/05:30am 23.2 25.1 20.5 85 1.8 SSW 11 13 6 7 1011.2 1011.1 0.0
02/05:00am 23.1 25.4 20.6 86 1.6 SW 9 11 5 6 1010.8 1010.7 0.0
02/04:30am 23.1 25.3 20.4 85 1.8 SW 9 11 5 6 1010.2 1010.1 0.0
02/04:00am 23.3 25.4 20.1 82 2.1 SW 9 11 5 6 1009.9 1009.8 0.0
02/03:30am 23.6 25.9 19.9 80 2.4 WSW 7 7 4 4 1009.8 1009.7 0.0
02/03:00am 23.8 26.2 20.1 80 2.4 W 7 9 4 5 1009.7 1009.6 0.0
02/02:30am 23.8 26.2 20.1 80 2.4 WNW 7 11 4 6 1009.7 1009.6 0.0
02/02:00am 23.9 26.4 20.2 80 2.4 W 7 7 4 4 1009.7 1009.6 0.0
02/01:30am 24.0 26.2 20.3 80 2.4 NW 9 11 5 6 1009.7 1009.6 0.0
02/01:00am 24.5 27.2 20.2 77 2.8 WNW 6 7 3 4 1010.3 1010.2 0.0
02/12:30am 24.3 28.0 20.0 77 2.8 CALM 0 0 0 0 1010.3 1010.2 0.0
02/12:00am 24.4 26.9 19.9 76 2.9 NNW 6 7 3 4 1010.3 1010.2 0.0
 
Date/Time
EST
Tmp

°C
App
Tmp
°C
Dew
Point
°C
Rel
Hum
%
Delta-T

°C
Wind Press
QNH
hPa
Press
MSL
hPa
Rain
since
9 am
mm
Dir
 
Spd
km/h
Gust
km/h
Spd
kts
Gust
kts
01/11:30pm 24.8 26.9 20.1 75 3.0 N 9 13 5 7 1010.1 1010.0 0.0
01/11:00pm 25.1 27.1 19.9 73 3.4 N 9 13 5 7 1010.0 1009.9 0.0
01/10:30pm 25.5 26.8 20.1 72 3.5 N 13 19 7 10 1010.3 1010.2 0.0
01/10:00pm 25.8 26.0 20.1 71 3.7 N 19 24 10 13 1010.3 1010.2 0.0
01/09:30pm 25.8 26.3 20.1 71 3.7 NNE 17 20 9 11 1010.5 1010.4 0.0
01/09:00pm 25.7 25.7 19.8 70 3.8 NNE 19 22 10 12 1010.2 1010.1 0.0
01/08:30pm 25.7 25.5 19.8 70 3.8 NNE 20 26 11 14 1009.8 1009.7 0.0
01/08:00pm 25.8 25.7 19.9 70 3.8 NNE 20 26 11 14 1009.8 1009.7 0.0
01/07:30pm 25.8 25.2 19.7 69 3.9 NNE 22 28 12 15 1009.5 1009.4 0.0
01/07:00pm 25.7 25.4 19.6 69 3.9 NNE 20 26 11 14 1009.1 1009.0 0.0
01/06:30pm 25.9 24.6 19.8 69 4.0 NNE 26 30 14 16 1008.5 1008.4 0.0
01/06:00pm 26.1 24.6 19.5 67 4.3 NNE 26 30 14 16 1008.4 1008.3 0.0
01/05:30pm 26.6 24.9 19.7 66 4.5 NNE 28 32 15 17 1008.2 1008.1 0.0
01/05:00pm 26.9 25.2 19.8 65 4.6 NNE 28 32 15 17 1008.2 1008.1 0.0
01/04:30pm 27.4 25.9 20.2 65 4.7 NNE 28 30 15 16 1007.8 1007.7 0.0
01/04:00pm 28.1 27.2 20.6 63 5.0 NNE 26 30 14 16 1007.8 1007.7 0.0
01/03:30pm 27.3 26.0 19.9 64 4.8 NNE 26 30 14 16 1007.9 1007.8 0.0
01/03:00pm 28.2 27.6 20.5 63 5.1 NE 24 28 13 15 1008.1 1008.0 0.0
01/02:30pm 28.4 28.3 21.4 66 4.7 NE 24 28 13 15 1008.4 1008.3 0.0
01/02:00pm 27.4 26.9 20.0 64 4.8 NE 22 28 12 15 1008.7 1008.6 0.0
01/01:30pm 28.0 28.1 20.0 61 5.2 ENE 19 24 10 13 1008.9 1008.8 0.0
01/01:00pm 27.7 27.8 20.0 63 5.0 ENE 19 24 10 13 1009.2 1009.1 0.0
01/12:30pm 28.5 29.1 20.2 60 5.5 ENE 17 20 9 11 1009.6 1009.5 0.0
01/12:00pm 28.6 29.9 20.9 63 5.1 ENE 15 19 8 10 1010.0 1009.9 0.0
01/11:30am 28.5 29.6 19.7 59 5.7 NE 13 15 7 8 1010.2 1010.1 0.0
01/11:00am 28.1 29.8 20.1 62 5.2 ENE 11 15 6 8 1010.6 1010.5 0.0
01/10:30am 26.8 28.9 20.2 67 4.3 E 9 11 5 6 1011.2 1011.1 0.0
01/10:00am 26.2 28.3 20.1 69 4.0 E 9 11 5 6 1011.3 1011.2 0.0
01/09:30am 25.8 28.2 19.7 69 3.9 SE 6 9 3 5 1011.4 1011.3 0.0
01/09:00am 25.8 28.1 19.9 70 3.8 SE 7 9 4 5 1011.2 1011.1 0.2
01/08:30am 26.2 28.8 21.2 74 3.3 SSE 9 11 5 6 1011.0 1010.9 0.2
01/08:00am 25.0 27.7 20.7 77 2.8 SW 7 9 4 5 1011.0 1010.9 0.2
01/07:30am 24.0 25.9 20.5 81 2.3 SW 11 15 6 8 1010.8 1010.7 0.2
01/07:00am 23.4 25.4 20.7 85 1.8 WSW 11 13 6 7 1010.6 1010.5 0.2
01/06:30am 23.0 25.0 20.7 87 1.5 SW 11 13 6 7 1010.5 1010.4 0.2
01/06:00am 22.8 24.7 20.5 87 1.5 WSW 11 13 6 7 1010.2 1010.1 0.2
01/05:30am 22.9 24.7 20.4 86 1.6 WSW 11 13 6 7 1010.0 1009.9 0.0
01/05:00am 23.0 25.1 20.1 84 1.9 WSW 9 11 5 6 1009.8 1009.7 0.0
01/04:30am 23.0 25.1 20.1 84 1.9 NE 9 13 5 7 1009.6 1009.5 0.0
01/04:00am 23.0 24.2 19.8 82 2.1 NE 13 15 7 8 1009.4 1009.3 0.0
01/03:30am 23.2 24.5 19.4 79 2.4 NE 11 15 6 8 1009.5 1009.4 0.0
01/03:00am 24.3 25.8 19.8 76 2.9 NE 11 15 6 8 1009.6 1009.5 0.0
01/02:30am 24.5 25.7 20.0 76 2.9 NE 13 17 7 9 1009.7 1009.6 0.0
01/02:00am 24.7 25.7 19.5 73 3.3 NE 13 17 7 9 1009.7 1009.6 0.0
01/01:30am 24.5 24.8 19.6 74 3.2 NE 17 19 9 10 1010.0 1009.9 0.0
01/01:00am 24.7 25.9 19.8 74 3.2 NE 13 17 7 9 1010.4 1010.3 0.0
01/12:30am 24.9 24.8 19.5 72 3.5 NE 19 20 10 11 1010.7 1010.6 0.0
01/12:00am 24.9 25.2 19.7 73 3.4 ENE 17 20 9 11 1010.7 1010.6 0.0
 
Date/Time
EST
Tmp

°C
App
Tmp
°C
Dew
Point
°C
Rel
Hum
%
Delta-T

°C
Wind Press
QNH
hPa
Press
MSL
hPa
Rain
since
9 am
mm
Dir
 
Spd
km/h
Gust
km/h
Spd
kts
Gust
kts
28/11:30pm 25.0 25.5 20.0 74 3.2 ENE 17 20 9 11 1011.2 1011.1 0.0
28/11:00pm 25.0 25.9 20.0 74 3.2 ENE 15 19 8 10 1011.5 1011.4 0.0
28/10:30pm 24.9 26.2 19.3 71 3.6 NE 11 15 6 8 1011.6 1011.5 0.0
28/10:00pm 25.1 26.1 19.5 71 3.6 ENE 13 15 7 8 1011.5 1011.4 0.0
28/09:30pm 25.2 25.7 19.3 70 3.8 NE 15 19 8 10 1011.4 1011.3 0.0
28/09:00pm 25.3 25.4 19.2 69 3.9 ENE 17 20 9 11 1011.4 1011.3 0.0
28/08:30pm 25.4 25.7 19.5 70 3.8 NE 17 19 9 10 1011.2 1011.1 0.0
28/08:00pm 25.4 25.4 19.8 71 3.6 NE 19 22 10 12 1011.1 1011.0 0.0
28/07:30pm 25.5 24.4 19.4 69 3.9 ENE 24 28 13 15 1010.6 1010.5 0.0
28/07:00pm 25.7 25.4 19.6 69 3.9 ENE 20 24 11 13 1010.3 1010.2 0.0
28/06:30pm 25.8 25.8 19.7 69 3.9 ENE 19 22 10 12 1010.0 1009.9 0.0
28/06:00pm 26.0 25.7 19.6 68 4.1 ENE 20 22 11 12 1009.6 1009.5 0.0
28/05:30pm 26.1 25.8 19.5 67 4.3 ENE 20 28 11 15 1009.3 1009.2 0.0
28/05:00pm 26.5 26.2 19.6 66 4.5 ENE 20 26 11 14 1009.1 1009.0 0.0
28/04:30pm 27.1 27.0 19.9 64 4.7 E 20 26 11 14 1009.1 1009.0 0.0
28/04:00pm 27.3 27.4 19.9 64 4.8 NE 19 24 10 13 1009.1 1009.0 0.0
28/03:30pm 26.9 26.2 19.5 64 4.8 NE 22 30 12 16 1008.9 1008.8 0.0
28/03:00pm 27.3 27.6 20.4 66 4.5 NE 19 20 10 11 1009.1 1009.0 0.0
28/02:30pm 27.3 27.5 19.4 62 5.1 ENE 17 24 9 13 1009.1 1009.0 0.0
28/02:00pm 27.5 26.9 19.8 63 5.0 ENE 22 26 12 14 1009.4 1009.3 0.0
28/01:30pm 27.1 27.1 20.2 66 4.5 ENE 20 26 11 14 1009.7 1009.6 0.0
28/01:00pm 27.3 27.7 19.9 64 4.8 E 17 19 9 10 1009.8 1009.7 0.0
28/12:30pm 27.0 27.2 20.1 66 4.5 ESE 19 20 10 11 1010.2 1010.1 0.0
28/12:00pm 27.6 27.8 19.4 61 5.3 E 17 22 9 12 1010.3 1010.2 0.0
28/11:30am 27.8 27.7 17.9 54 6.3 E 15 17 8 9 1010.6 1010.5 0.0
28/11:00am 28.4 30.4 19.9 60 5.6 ENE 9 11 5 6 1010.9 1010.8 0.0
28/10:30am 27.5 29.4 19.8 63 5.0 ENE 9 9 5 5 1011.1 1011.0 0.0
28/10:00am 25.7 28.4 21.4 77 2.9 ESE 9 9 5 5 1011.3 1011.2 0.0
28/09:30am 25.8 28.1 20.6 73 3.4 SE 9 13 5 7 1011.3 1011.2 0.0
28/09:00am 25.8 27.5 20.1 71 3.7 SSE 11 13 6 7 1011.2 1011.1 0.0
28/08:30am 25.7 27.3 20.0 71 3.7 SSE 11 13 6 7 1011.1 1011.0 0.0
28/08:00am 25.6 28.5 20.6 74 3.3 SW 6 11 3 6 1011.0 1010.9 0.0
28/07:30am 24.0 26.3 20.7 82 2.2 SW 9 13 5 7 1010.7 1010.6 0.0
28/07:00am 23.1 24.9 20.4 85 1.8 SW 11 13 6 7 1010.5 1010.4 0.0
28/06:30am 22.9 24.7 20.4 86 1.6 SW 11 13 6 7 1010.3 1010.2 0.0
28/06:00am 22.5 24.1 20.0 86 1.6 SW 11 13 6 7 1010.0 1009.9 0.0
28/05:30am 22.6 24.3 20.1 86 1.6 SW 11 15 6 8 1009.7 1009.6 0.0
28/05:00am 22.9 25.0 20.2 85 1.7 SW 9 13 5 7 1009.5 1009.4 0.0
28/04:30am 23.0 24.8 20.3 85 1.7 WSW 11 13 6 7 1009.4 1009.3 0.0
28/04:00am 22.9 25.2 19.9 83 1.9 WSW 7 9 4 5 1009.2 1009.1 0.0
28/03:30am 22.9 25.2 19.9 83 1.9 W 7 9 4 5 1009.1 1009.0 0.0
28/03:00am 23.3 25.6 19.9 81 2.2 NW 7 9 4 5 1009.2 1009.1 0.0
28/02:30am 24.0 26.3 19.9 78 2.6 N 7 9 4 5 1009.5 1009.4 0.0
28/02:00am 24.4 24.5 19.9 76 2.9 NE 19 22 10 12 1009.5 1009.4 0.0
28/01:30am 24.3 26.0 19.4 74 3.1 NNE 9 11 5 6 1009.6 1009.5 0.0
28/01:00am 24.5 26.3 19.6 74 3.2 N 9 13 5 7 1009.5 1009.4 0.0
28/12:30am 24.9 25.8 19.3 71 3.6 NNE 13 15 7 8 1009.7 1009.6 0.0
28/12:00am 25.2 25.7 19.3 70 3.8 NE 15 17 8 9 1010.1 1010.0 0.0
 
Date/Time
EST
Tmp

°C
App
Tmp
°C
Dew
Point
°C
Rel
Hum
%
Delta-T

°C
Wind Press
QNH
hPa
Press
MSL
hPa
Rain
since
9 am
mm
Dir
 
Spd
km/h
Gust
km/h
Spd
kts
Gust
kts
27/11:30pm 25.0 25.6 19.4 71 3.6 NNE 15 19 8 10 1009.9 1009.8 0.0
27/11:00pm 25.0 25.6 19.4 71 3.6 NE 15 19 8 10 1010.1 1010.0 0.0
27/10:30pm 25.0 25.1 19.1 70 3.8 NE 17 20 9 11 1009.9 1009.8 0.0
27/10:00pm 25.3 25.4 19.2 69 3.9 NE 17 19 9 10 1010.2 1010.1 0.0
27/09:30pm 25.1 24.7 19.0 69 3.9 ENE 19 24 10 13 1010.0 1009.9 0.0

Latest Capital City Observations: Canberra | Sydney | Melbourne | Brisbane | Adelaide | Perth | Hobart | Darwin

Other Formats:

Comma delimited format used in spreadsheet applications
http://www.bom.gov.au/fwo/IDQ60901/IDQ60901.95591.axf

JavaScript Object Notation format (JSON) in row-major order
http://www.bom.gov.au/fwo/IDQ60901/IDQ60901.95591.json